Time;durP1;ratioP1;P1;durP2;ratioP2;P2;SDS_P1;SDS_P2;PMS_P1;PMS_P2;Temp;Humidity;BMP_temperature;BMP_pressure;BME280_temperature;BME280_humidity;BME280_pressure;Samples;Min_cycle;Max_cycle;Signal;HPM_P1;HPM_P2
2021/08/31 00:02:40;;;;;;;10.18;7.90;;;;;;;16.54;100.00;99814.89;2888934;80;20964;-72
2021/08/31 00:06:42;;;;;;;16.62;9.25;;;;;;;16.56;100.00;99810.99;2911234;80;21015;-73
2021/08/31 00:10:44;;;;;;;10.00;7.42;;;;;;;16.58;100.00;99808.14;2909608;81;20994;-79
2021/08/31 00:14:45;;;;;;;9.78;8.18;;;;;;;16.57;100.00;99807.81;2909962;82;21011;-76
2021/08/31 00:18:47;;;;;;;9.23;8.00;;;;;;;16.61;100.00;99808.31;2910330;82;20959;-75
2021/08/31 00:22:49;;;;;;;8.08;6.92;;;;;;;16.64;100.00;99810.11;2911204;82;21022;-75
2021/08/31 00:26:51;;;;;;;8.30;5.92;;;;;;;16.66;100.00;99810.77;2911109;80;21018;-71
2021/08/31 00:30:52;;;;;;;6.55;5.33;;;;;;;16.68;100.00;99808.73;2903081;80;21031;-74
2021/08/31 00:34:54;;;;;;;6.75;6.12;;;;;;;16.69;100.00;99810.41;2861641;82;21006;-75
2021/08/31 00:38:57;;;;;;;6.00;5.50;;;;;;;16.69;100.00;99810.41;2861639;81;20987;-72
2021/08/31 00:42:59;;;;;;;7.95;5.78;;;;;;;16.71;100.00;99807.56;2861530;83;21046;-77
2021/08/31 00:47:04;;;;;;;8.10;6.75;;;;;;;16.73;100.00;99812.23;2861265;82;21054;-75
2021/08/31 00:51:08;;;;;;;8.53;5.58;;;;;;;16.79;100.00;99805.33;2858633;82;21103;-76
2021/08/31 00:55:11;;;;;;;6.90;6.30;;;;;;;16.83;100.00;99801.27;2835275;84;21003;-72
2021/08/31 00:59:14;;;;;;;6.10;5.05;;;;;;;16.84;100.00;99802.44;2834801;84;21066;-82
2021/08/31 01:03:15;;;;;;;5.70;4.95;;;;;;;16.83;100.00;99793.20;2835489;84;20967;-75
2021/08/31 01:07:17;;;;;;;17.87;7.37;;;;;;;16.84;100.00;99801.09;2834858;84;20956;-77
2021/08/31 01:11:19;;;;;;;10.70;7.45;;;;;;;16.86;100.00;99798.21;2834247;84;21027;-74
2021/08/31 01:15:21;;;;;;;14.45;9.55;;;;;;;16.88;100.00;99801.55;2835005;83;21019;-71
2021/08/31 01:19:30;;;;;;;12.18;9.03;;;;;;;16.87;100.00;99801.75;2835298;83;21031;-75
2021/08/31 01:23:31;;;;;;;4.40;3.87;;;;;;;16.89;100.00;99806.44;2900485;80;67648;-63
2021/08/31 01:27:35;;;;;;;4.65;3.85;;;;;;;16.94;100.00;99816.97;2966948;80;20939;-62
2021/08/31 01:31:39;;;;;;;7.85;2.25;;;;;;;17.02;100.00;99822.83;2967269;80;21009;-61
2021/08/31 01:35:41;;;;;;;1.90;1.40;;;;;;;17.05;100.00;99814.90;2966880;80;20994;-64
2021/08/31 01:39:44;;;;;;;3.45;1.62;;;;;;;16.99;100.00;99814.61;2967429;78;20951;-65
2021/08/31 01:43:57;;;;;;;2.27;0.90;;;;;;;16.98;100.00;99808.91;2967611;78;21002;-61
2021/08/31 01:47:59;;;;;;;1.02;0.60;;;;;;;16.97;100.00;99810.39;2967044;80;20971;-62
2021/08/31 01:52:02;;;;;;;1.75;1.40;;;;;;;16.98;100.00;99809.38;2967222;80;20916;-63
2021/08/31 01:56:05;;;;;;;2.15;1.32;;;;;;;16.95;100.00;99814.62;2967149;80;20956;-62
2021/08/31 02:00:28;;;;;;;1.25;1.15;;;;;;;16.94;100.00;99810.26;2967022;80;20957;-61
2021/08/31 02:04:32;;;;;;;2.50;1.27;;;;;;;16.97;100.00;99810.39;2966644;80;20931;-63
2021/08/31 02:08:33;;;;;;;1.65;1.35;;;;;;;16.95;100.00;99811.93;2852951;82;20965;-61
2021/08/31 02:12:35;;;;;;;2.10;1.20;;;;;;;16.93;100.00;99815.30;2967333;80;20939;-61
2021/08/31 02:16:39;;;;;;;3.20;1.30;;;;;;;16.91;100.00;99820.52;2967439;80;20998;-60
2021/08/31 02:20:41;;;;;;;1.87;1.67;;;;;;;16.87;100.00;99818.69;2967120;80;20990;-61
2021/08/31 02:24:43;;;;;;;2.40;1.92;;;;;;;16.83;100.00;99821.41;2956398;80;20956;-62
2021/08/31 02:28:45;;;;;;;3.77;1.92;;;;;;;16.78;100.00;99822.45;2952437;80;20911;-61
2021/08/31 02:32:48;;;;;;;6.40;2.22;;;;;;;16.75;100.00;99824.16;2952774;80;20960;-61
2021/08/31 02:36:53;;;;;;;2.77;2.58;;;;;;;16.73;100.00;99827.53;2952650;78;21019;-63
2021/08/31 02:40:56;;;;;;;2.15;1.92;;;;;;;16.72;100.00;99830.71;2952764;80;21006;-61
2021/08/31 02:45:00;;;;;;;3.17;2.12;;;;;;;16.70;100.00;99830.91;2952968;80;20943;-62
2021/08/31 02:49:01;;;;;;;3.90;2.80;;;;;;;16.72;100.00;99832.58;2952979;80;21034;-63
2021/08/31 02:53:04;;;;;;;5.17;3.87;;;;;;;16.71;100.00;99831.72;2944613;80;21588;-61
2021/08/31 02:57:10;;;;;;;4.37;3.85;;;;;;;16.73;100.00;99830.22;2948203;79;20963;-63
2021/08/31 03:01:36;;;;;;;18.55;4.83;;;;;;;16.74;100.00;99823.83;2955290;79;20940;-62
2021/08/31 03:05:37;;;;;;;3.17;2.97;;;;;;;16.73;100.00;99829.70;2948730;80;20971;-63
2021/08/31 03:09:43;;;;;;;5.35;3.92;;;;;;;16.73;100.00;99826.19;2952402;80;21023;-61
2021/08/31 03:13:44;;;;;;;5.47;4.00;;;;;;;16.71;100.00;99831.72;2952719;80;20963;-62
2021/08/31 03:17:47;;;;;;;4.10;3.80;;;;;;;16.69;100.00;99835.09;2952256;77;21003;-61
2021/08/31 03:22:10;;;;;;;7.60;3.52;;;;;;;16.66;100.00;99842.98;2952432;78;20949;-62
2021/08/31 03:26:11;;;;;;;4.25;3.77;;;;;;;16.68;100.00;99842.83;2952175;80;20988;-64
2021/08/31 03:30:13;;;;;;;4.08;3.67;;;;;;;16.69;100.00;99845.31;2952235;80;20944;-60
2021/08/31 03:34:15;;;;;;;5.15;4.05;;;;;;;16.66;100.00;99841.64;2952272;80;21014;-59
2021/08/31 03:38:29;;;;;;;5.90;5.40;;;;;;;16.70;100.00;99847.02;2952230;80;20984;-60
2021/08/31 03:42:31;;;;;;;4.58;3.80;;;;;;;16.74;100.00;99844.80;2951943;80;21024;-60
2021/08/31 03:46:32;;;;;;;4.10;3.70;;;;;;;16.73;100.00;99846.33;2952141;80;20980;-60
2021/08/31 03:50:34;;;;;;;6.70;4.08;;;;;;;16.70;100.00;99845.67;2952149;80;21015;-60
2021/08/31 03:54:41;;;;;;;6.15;5.40;;;;;;;16.72;100.00;99846.00;2952108;80;20983;-60
2021/08/31 03:58:42;;;;;;;7.83;4.85;;;;;;;16.70;100.00;99853.73;2951920;80;20940;-61
2021/08/31 04:02:44;;;;;;;5.90;4.33;;;;;;;16.70;100.00;99851.05;2952293;80;20982;-60
2021/08/31 04:06:46;;;;;;;4.83;4.42;;;;;;;16.67;100.00;99851.38;2952504;78;21003;-60
2021/08/31 04:10:47;;;;;;;5.17;4.28;;;;;;;16.70;100.00;99844.33;2952447;80;21014;-60
2021/08/31 04:14:49;;;;;;;9.25;4.78;;;;;;;16.69;100.00;99841.81;2952325;79;20952;-61
2021/08/31 04:18:51;;;;;;;5.10;4.60;;;;;;;16.65;100.00;99841.31;2952043;80;20983;-62
2021/08/31 04:22:52;;;;;;;5.62;4.08;;;;;;;16.62;100.00;99840.86;2954919;80;21056;-61
2021/08/31 04:26:54;;;;;;;6.85;3.65;;;;;;;16.60;100.00;99837.48;2975358;80;20952;-62
2021/08/31 04:30:56;;;;;;;5.90;4.75;;;;;;;16.54;100.00;99837.18;2975302;80;20936;-62
2021/08/31 04:35:02;;;;;;;5.08;4.50;;;;;;;16.54;100.00;99834.50;2975198;78;20963;-62
2021/08/31 04:39:01;;;;;;;6.10;5.58;;;;;;;16.54;100.00;99848.45;2974506;80;20963;-62
2021/08/31 04:43:03;;;;;;;6.00;5.35;;;;;;;16.55;100.00;99839.38;2975132;80;20959;-63
2021/08/31 04:47:04;;;;;;;6.97;6.20;;;;;;;16.55;100.00;99846.09;2975224;80;20961;-62
2021/08/31 04:51:08;;;;;;;7.78;6.75;;;;;;;16.57;100.00;99841.37;2975018;80;20942;-63
2021/08/31 04:55:11;;;;;;;7.17;6.47;;;;;;;16.56;100.00;99847.76;2975331;80;21488;-62
2021/08/31 04:59:13;;;;;;;7.83;5.92;;;;;;;16.56;100.00;99845.08;2975322;80;20963;-62
2021/08/31 05:03:14;;;;;;;7.45;6.75;;;;;;;16.58;100.00;99851.10;2975104;80;20994;-62
2021/08/31 05:07:16;;;;;;;10.88;7.40;;;;;;;16.60;100.00;99851.76;2975318;80;20982;-62
2021/08/31 05:11:17;;;;;;;9.20;6.87;;;;;;;16.62;100.00;99856.45;2975201;80;20911;-62
2021/08/31 05:15:19;;;;;;;7.53;6.80;;;;;;;16.65;100.00;99855.27;2975382;80;20943;-62
2021/08/31 05:19:21;;;;;;;8.05;6.40;;;;;;;16.63;100.00;99859.45;2975146;80;20985;-64
2021/08/31 05:23:28;;;;;;;8.83;6.65;;;;;;;16.63;100.00;99852.74;2968909;80;20975;-65
2021/08/31 05:27:31;;;;;;;5.35;4.85;;;;;;;16.61;100.00;99856.64;2944382;81;20927;-62
2021/08/31 05:31:33;;;;;;;7.80;5.30;;;;;;;16.58;100.00;99862.33;2944547;80;20960;-62
2021/08/31 05:35:34;;;;;;;7.65;5.08;;;;;;;16.55;100.00;99858.17;2944498;80;20964;-62
2021/08/31 05:39:36;;;;;;;5.15;4.60;;;;;;;16.55;100.00;99856.30;2939781;81;21463;-62
2021/08/31 05:43:47;;;;;;;5.85;4.17;;;;;;;16.55;100.00;99856.83;2944475;80;21078;-62
2021/08/31 05:47:48;;;;;;;7.10;4.70;;;;;;;16.51;100.00;99854.17;2944514;81;21006;-61
2021/08/31 05:51:50;;;;;;;7.33;5.33;;;;;;;16.52;100.00;99859.87;2944250;81;21520;-63
2021/08/31 05:55:52;;;;;;;5.58;4.78;;;;;;;16.57;100.00;99870.91;2944605;81;20964;-63
2021/08/31 05:59:53;;;;;;;5.40;4.62;;;;;;;16.59;100.00;99863.52;2944523;81;20940;-63
2021/08/31 06:03:55;;;;;;;6.95;4.72;;;;;;;16.64;100.00;99874.55;2943843;81;20931;-62
2021/08/31 06:07:57;;;;;;;4.72;4.22;;;;;;;16.69;100.00;99874.86;2944473;81;20975;-63
2021/08/31 06:11:58;;;;;;;4.95;4.45;;;;;;;16.67;100.00;99875.54;2944402;80;21019;-63
2021/08/31 06:16:06;;;;;;;6.45;4.35;;;;;;;16.66;100.00;99885.13;2944248;81;20948;-62
2021/08/31 06:20:09;;;;;;;5.75;5.25;;;;;;;16.69;100.00;99884.25;2944215;80;20963;-62
2021/08/31 06:24:12;;;;;;;5.72;5.15;;;;;;;16.72;100.00;99892.48;2946942;80;20975;-63
2021/08/31 06:28:14;;;;;;;7.80;5.65;;;;;;;16.77;100.00;99901.36;2952290;80;20959;-63
2021/08/31 06:32:16;;;;;;;3.75;3.40;;;;;;;16.82;100.00;99898.97;2952157;80;20952;-62
2021/08/31 06:36:17;;;;;;;4.67;4.03;;;;;;;16.87;100.00;99901.95;2952249;80;21520;-63
2021/08/31 06:40:19;;;;;;;5.12;3.95;;;;;;;16.90;100.00;99904.80;2952230;80;20970;-63
2021/08/31 06:44:24;;;;;;;4.53;3.92;;;;;;;16.93;100.00;99912.02;2951853;80;20978;-63
2021/08/31 06:48:26;;;;;;;4.35;3.30;;;;;;;16.94;100.00;99896.72;2952123;80;20955;-63
2021/08/31 06:52:28;;;;;;;5.40;4.78;;;;;;;16.97;100.00;99896.36;2952104;80;21022;-62
2021/08/31 06:56:42;;;;;;;5.08;4.08;;;;;;;16.98;100.00;99892.66;2952261;80;20923;-63
2021/08/31 07:00:44;;;;;;;6.08;4.00;;;;;;;16.98;100.00;99892.20;2952458;80;20963;-63
2021/08/31 07:04:49;;;;;;;3.70;3.02;;;;;;;17.00;100.00;99905.47;2952240;80;20944;-63
2021/08/31 07:08:52;;;;;;;6.47;4.10;;;;;;;17.02;100.00;99909.30;2952691;80;20963;-63
2021/08/31 07:12:53;;;;;;;5.75;3.67;;;;;;;17.07;100.00;99914.97;2952360;80;20997;-63
2021/08/31 07:16:56;;;;;;;5.47;4.92;;;;;;;17.11;100.00;99916.31;2952526;80;20955;-63
2021/08/31 07:20:57;;;;;;;6.42;4.37;;;;;;;17.15;100.00;99917.63;2952270;80;20927;-63
2021/08/31 07:24:59;;;;;;;3.87;3.47;;;;;;;17.17;100.00;99920.11;2952609;80;20935;-63
2021/08/31 07:29:01;;;;;;;5.28;4.72;;;;;;;17.17;100.00;99915.59;2952428;80;20998;-62
2021/08/31 07:33:21;;;;;;;4.12;3.58;;;;;;;17.17;100.00;99921.45;2952249;80;21411;-64
2021/08/31 07:37:22;;;;;;;7.12;3.67;;;;;;;17.22;100.00;99924.47;2952428;80;20932;-64
2021/08/31 07:41:30;;;;;;;7.28;4.12;;;;;;;17.23;100.00;99929.65;2952463;80;20987;-62
2021/08/31 07:45:33;;;;;;;5.47;4.85;;;;;;;17.23;100.00;99928.30;2952408;80;20951;-62
2021/08/31 07:49:34;;;;;;;4.85;4.37;;;;;;;17.24;100.00;99936.70;2952350;80;20936;-63
2021/08/31 07:53:43;;;;;;;4.58;4.17;;;;;;;17.27;100.00;99940.36;2952341;80;20978;-64
2021/08/31 07:57:45;;;;;;;5.55;4.10;;;;;;;17.31;100.00;99937.34;2952506;80;21002;-63
2021/08/31 08:01:46;;;;;;;3.55;3.25;;;;;;;17.35;100.00;99942.69;2952491;80;20951;-63
2021/08/31 08:05:52;;;;;;;5.20;4.55;;;;;;;17.36;100.00;99948.39;2952484;80;20955;-62
2021/08/31 08:09:55;;;;;;;5.50;3.70;;;;;;;17.38;100.00;99949.05;2952436;80;20923;-61
2021/08/31 08:13:57;;;;;;;4.10;3.58;;;;;;;17.37;100.00;99946.85;2952258;80;20990;-63
2021/08/31 08:17:59;;;;;;;3.45;3.15;;;;;;;17.40;100.00;99949.21;2951923;79;20955;-64
2021/08/31 08:22:01;;;;;;;5.95;3.95;;;;;;;17.42;100.00;99949.02;2901243;82;21031;-63
2021/08/31 08:26:06;;;;;;;3.85;3.52;;;;;;;17.46;100.00;99951.66;2900848;82;21015;-63
2021/08/31 08:30:09;;;;;;;3.95;3.55;;;;;;;17.46;100.00;99938.74;2901218;82;20999;-63
2021/08/31 08:34:31;;;;;;;3.77;3.10;;;;;;;17.49;100.00;99948.64;2901361;82;20984;-63
2021/08/31 08:38:33;;;;;;;4.50;3.60;;;;;;;17.56;100.00;99943.36;2901350;82;21419;-62
2021/08/31 08:42:38;;;;;;;3.55;3.22;;;;;;;17.64;100.00;99950.52;2901367;81;21004;-63
2021/08/31 08:46:43;;;;;;;3.85;3.12;;;;;;;17.63;100.00;99949.70;2901142;82;20960;-62
2021/08/31 08:50:45;;;;;;;3.02;2.72;;;;;;;17.67;100.00;99954.19;2901032;82;21019;-62
2021/08/31 08:54:47;;;;;;;3.47;3.15;;;;;;;17.69;100.00;99960.26;2901340;82;20908;-63
2021/08/31 08:58:49;;;;;;;3.98;3.05;;;;;;;17.69;100.00;99961.60;2901140;82;20968;-62
2021/08/31 09:02:51;;;;;;;3.27;2.45;;;;;;;17.74;100.00;99962.37;2901315;81;20991;-63
2021/08/31 09:06:53;;;;;;;2.58;2.08;;;;;;;17.78;100.00;99956.95;2901147;82;20972;-62
2021/08/31 09:10:54;;;;;;;1.90;1.80;;;;;;;17.79;100.00;99962.17;2901233;81;20987;-63
2021/08/31 09:14:56;;;;;;;3.20;2.35;;;;;;;17.79;100.00;99966.73;2901097;82;20987;-63
2021/08/31 09:18:58;;;;;;;1.90;1.77;;;;;;;17.79;100.00;99974.80;2901305;82;20959;-62
2021/08/31 09:23:00;;;;;;;1.98;1.85;;;;;;;17.76;100.00;99974.64;2901038;82;21010;-65
2021/08/31 09:27:04;;;;;;;2.92;2.70;;;;;;;17.71;100.00;99981.08;2901045;80;20980;-63
2021/08/31 09:31:13;;;;;;;2.65;2.12;;;;;;;17.73;100.00;99975.02;2901161;82;20980;-63
2021/08/31 09:35:16;;;;;;;2.42;2.22;;;;;;;17.72;100.00;99988.13;2901163;82;20955;-63
2021/08/31 09:39:23;;;;;;;2.60;2.30;;;;;;;17.78;100.00;99987.89;2901063;82;20960;-62
2021/08/31 09:43:26;;;;;;;2.08;1.60;;;;;;;17.76;100.00;99994.82;2898377;81;20940;-64
2021/08/31 09:47:36;;;;;;;3.25;2.87;;;;;;;17.75;100.00;99997.67;2901605;80;20920;-62
2021/08/31 09:51:43;;;;;;;5.10;3.50;;;;;;;17.74;100.00;99998.20;2901298;80;20960;-65
2021/08/31 09:55:53;;;;;;;4.95;4.37;;;;;;;17.73;100.00;100007.29;2896671;79;20971;-63
2021/08/31 09:59:56;;;;;;;5.08;4.53;;;;;;;17.72;100.00;100006.96;2898711;81;20967;-64
2021/08/31 10:04:05;;;;;;;6.22;5.58;;;;;;;17.72;100.00;100006.11;2901010;82;21485;-63
2021/08/31 10:08:08;;;;;;;6.80;4.85;;;;;;;17.73;100.00;100005.94;2900936;82;20932;-65
2021/08/31 10:12:10;;;;;;;6.42;5.75;;;;;;;17.75;100.00;100020.05;2900378;82;20984;-63
2021/08/31 10:16:19;;;;;;;8.60;7.37;;;;;;;17.77;100.00;100018.02;2900844;82;21011;-63
2021/08/31 10:20:27;;;;;;;9.35;8.38;;;;;;;17.75;100.00;100022.73;2900859;82;20980;-63
2021/08/31 10:24:31;;;;;;;8.98;7.78;;;;;;;17.76;100.00;100019.52;2894223;80;21046;-63
2021/08/31 10:28:32;;;;;;;7.85;7.00;;;;;;;17.78;100.00;100025.55;2900755;82;21047;-63
2021/08/31 10:32:34;;;;;;;10.40;9.20;;;;;;;17.79;100.00;100031.30;2901249;82;20951;-64
2021/08/31 10:36:38;;;;;;;16.70;9.85;;;;;;;17.80;100.00;100037.83;2901165;82;20980;-63
2021/08/31 10:40:46;;;;;;;10.68;8.75;;;;;;;17.88;100.00;100038.77;2901167;82;20960;-64
2021/08/31 10:44:50;;;;;;;12.18;8.95;;;;;;;17.95;100.00;100035.70;2882818;82;20964;-63
2021/08/31 10:49:05;;;;;;;9.30;8.40;;;;;;;18.01;100.00;100036.31;2901141;82;20940;-64
2021/08/31 10:53:07;;;;;;;18.85;8.48;;;;;;;18.04;100.00;100035.98;2901231;82;21000;-64
2021/08/31 10:57:39;;;;;;;12.33;9.65;;;;;;;18.08;100.00;100042.70;2900759;82;20983;-63
2021/08/31 11:01:53;;;;;;;12.37;8.88;;;;;;;18.08;100.00;100035.97;2901061;82;21000;-64
2021/08/31 11:06:00;;;;;;;12.10;9.80;;;;;;;18.10;100.00;100042.01;2901196;82;21007;-64
2021/08/31 11:10:02;;;;;;;11.30;8.73;;;;;;;18.09;100.00;100038.98;2896579;82;20971;-64
2021/08/31 11:14:04;;;;;;;12.25;9.63;;;;;;;18.15;100.00;100046.82;2901233;82;21027;-63
2021/08/31 11:18:11;;;;;;;11.38;8.50;;;;;;;18.20;100.00;100051.67;2901272;82;20991;-63
2021/08/31 11:22:22;;;;;;;9.35;8.10;;;;;;;18.18;100.00;100051.02;2901327;82;20972;-63
2021/08/31 11:26:26;;;;;;;10.05;8.90;;;;;;;18.16;100.00;100048.50;2891392;82;21015;-63
2021/08/31 11:30:31;;;;;;;11.45;9.48;;;;;;;18.15;100.00;100046.00;2882785;82;21019;-63
2021/08/31 11:34:33;;;;;;;12.95;8.80;;;;;;;18.14;100.00;100053.22;2883127;82;20968;-62
2021/08/31 11:38:41;;;;;;;10.95;9.48;;;;;;;18.18;100.00;100057.75;2882697;82;20956;-62
2021/08/31 11:42:56;;;;;;;12.15;10.35;;;;;;;18.23;100.00;100066.11;2883026;82;20992;-63
2021/08/31 11:46:57;;;;;;;13.75;10.53;;;;;;;18.33;100.00;100064.50;2807868;84;21036;-63
2021/08/31 11:50:59;;;;;;;12.33;9.65;;;;;;;18.43;100.00;100069.63;2882825;82;20992;-62
2021/08/31 11:55:30;;;;;;;9.43;8.45;;;;;;;18.56;100.00;100067.16;2882990;82;21031;-63
2021/08/31 11:59:47;;;;;;;14.93;10.82;;;;;;;18.67;100.00;100068.06;2882626;82;20948;-63
2021/08/31 12:03:49;;;;;;;23.92;10.58;;;;;;;18.68;100.00;100071.58;2882425;82;20972;-63
2021/08/31 12:07:51;;;;;;;9.68;8.65;;;;;;;18.62;100.00;100073.67;2882868;82;21008;-63
2021/08/31 12:11:53;;;;;;;13.88;9.03;;;;;;;18.53;100.00;100065.66;2882825;82;20980;-62
2021/08/31 12:15:59;;;;;;;11.60;9.60;;;;;;;18.47;100.00;100081.21;2882959;82;20948;-63
2021/08/31 12:20:21;;;;;;;11.20;9.38;;;;;;;18.43;100.00;100082.60;2882786;82;20983;-62
2021/08/31 12:24:23;;;;;;;11.90;8.93;;;;;;;18.37;100.00;100086.86;2877659;82;20997;-62
2021/08/31 12:28:25;;;;;;;13.93;9.93;;;;;;;18.34;100.00;100080.49;2902367;80;20992;-62
2021/08/31 12:32:30;;;;;;;11.50;10.38;;;;;;;18.40;100.00;100085.14;2901236;82;20991;-62
2021/08/31 12:36:49;;;;;;;12.73;10.75;;;;;;;18.55;100.00;100095.11;2901386;82;20987;-61
2021/08/31 12:45:27;;;;;;;16.35;9.25;;;;;;;18.79;100.00;100086.45;2901300;82;20968;-62
2021/08/31 12:49:32;;;;;;;;;;;;;;;18.81;100.00;100091.14;2905638;82;20991;-62
2021/08/31 12:53:39;;;;;;;12.43;9.33;;;;;;;18.75;100.00;100090.54;2931471;80;20572;-64
2021/08/31 12:57:42;;;;;;;12.88;8.15;;;;;;;18.72;100.00;100095.78;2951090;80;21002;-65
2021/08/31 13:01:54;;;;;;;12.15;7.62;;;;;;;18.74;100.00;100098.30;2927599;80;20997;-65
2021/08/31 13:05:56;;;;;;;9.75;8.80;;;;;;;18.78;100.00;100103.64;2951451;80;20978;-66
2021/08/31 13:10:03;;;;;;;12.10;9.33;;;;;;;18.76;100.00;100100.30;2951629;80;21009;-65
2021/08/31 13:14:25;;;;;;;9.05;8.08;;;;;;;18.63;100.00;100100.41;2952149;80;20927;-66
2021/08/31 13:18:27;;;;;;;13.55;8.63;;;;;;;18.59;100.00;100099.11;2952430;80;20998;-65
2021/08/31 13:23:07;;;;;;;12.68;9.78;;;;;;;18.53;100.00;100106.05;2952224;80;21005;-65
2021/08/31 13:27:16;;;;;;;10.30;9.25;;;;;;;18.46;100.00;100100.23;2952179;80;20939;-69
2021/08/31 13:31:18;;;;;;;12.93;8.75;;;;;;;18.48;100.00;100106.30;2952371;80;21018;-65
2021/08/31 13:35:20;;;;;;;10.53;8.95;;;;;;;18.50;100.00;100101.04;2952026;80;20923;-63
2021/08/31 13:39:24;;;;;;;10.15;8.83;;;;;;;18.50;100.00;100096.18;2951893;80;20951;-66
2021/08/31 13:43:46;;;;;;;14.65;7.87;;;;;;;18.55;100.00;100099.16;2951976;80;21066;-65
2021/08/31 13:47:48;;;;;;;15.63;11.22;;;;;;;18.59;100.00;100107.72;2952051;80;20956;-65
2021/08/31 13:52:00;;;;;;;11.90;9.35;;;;;;;18.62;100.00;100097.91;2952087;80;20963;-63
2021/08/31 13:56:02;;;;;;;11.63;8.95;;;;;;;18.62;100.00;100111.38;2952042;80;20955;-65
2021/08/31 14:00:06;;;;;;;10.50;9.33;;;;;;;18.61;100.00;100113.23;2952078;80;20998;-64
2021/08/31 14:04:08;;;;;;;10.88;9.78;;;;;;;18.61;100.00;100117.27;2928225;80;20990;-68
2021/08/31 14:08:11;;;;;;;10.88;9.75;;;;;;;18.61;100.00;100122.66;2952083;80;20967;-64
2021/08/31 14:12:35;;;;;;;12.28;9.20;;;;;;;18.55;100.00;100127.44;2952056;80;20967;-61
2021/08/31 14:16:38;;;;;;;12.82;9.73;;;;;;;18.51;100.00;100134.21;2951849;80;20955;-66
2021/08/31 14:20:41;;;;;;;11.97;10.05;;;;;;;18.47;100.00;100138.26;2952081;80;20963;-62
2021/08/31 14:24:54;;;;;;;12.85;9.78;;;;;;;18.45;100.00;100140.30;2951939;80;20947;-67
2021/08/31 14:29:23;;;;;;;13.98;9.73;;;;;;;18.44;100.00;100137.28;2946445;80;21061;-63
2021/08/31 14:33:24;;;;;;;12.37;8.70;;;;;;;18.41;100.00;100133.94;2944504;81;21004;-65
2021/08/31 14:37:26;;;;;;;14.65;9.68;;;;;;;18.44;100.00;100148.05;2944133;81;20979;-64
2021/08/31 14:41:29;;;;;;;13.65;8.95;;;;;;;18.45;100.00;100147.03;2944353;81;20992;-63
2021/08/31 14:45:31;;;;;;;13.60;10.70;;;;;;;18.41;100.00;100150.62;2944254;81;20983;-62
2021/08/31 14:49:33;;;;;;;11.75;10.53;;;;;;;18.37;100.00;100158.21;2944485;80;20959;-62
2021/08/31 14:53:35;;;;;;;11.25;9.20;;;;;;;18.33;100.00;100151.52;2944463;80;21010;-63
2021/08/31 14:57:38;;;;;;;10.85;8.93;;;;;;;18.32;100.00;100157.06;2944496;81;21027;-62
2021/08/31 15:01:40;;;;;;;12.15;9.23;;;;;;;18.31;100.00;100156.25;2944478;81;20959;-63
2021/08/31 15:05:42;;;;;;;11.22;9.00;;;;;;;18.29;100.00;100155.59;2944137;80;20971;-66
2021/08/31 15:09:44;;;;;;;8.43;7.42;;;;;;;18.24;100.00;100153.92;2944443;81;20998;-65
2021/08/31 15:13:53;;;;;;;9.93;8.60;;;;;;;18.20;100.00;100149.92;2944347;81;20983;-65
2021/08/31 15:17:55;;;;;;;11.78;7.90;;;;;;;18.20;100.00;100148.58;2944120;81;21003;-65
2021/08/31 15:21:57;;;;;;;9.45;8.23;;;;;;;18.28;100.00;100145.84;2944740;81;21054;-63
2021/08/31 15:25:59;;;;;;;10.70;8.58;;;;;;;18.31;100.00;100150.86;2944436;80;21015;-65
2021/08/31 15:30:01;;;;;;;8.35;7.55;;;;;;;18.31;100.00;100136.05;2958493;79;21435;-65
2021/08/31 15:34:24;;;;;;;15.03;9.20;;;;;;;18.29;100.00;100150.20;2958684;79;21042;-63
2021/08/31 15:38:28;;;;;;;13.25;10.30;;;;;;;18.26;100.00;100150.05;2954956;79;21003;-62
2021/08/31 15:42:36;;;;;;;15.08;10.32;;;;;;;18.29;100.00;100154.74;2951449;80;29696;-66
2021/08/31 15:46:39;;;;;;;13.43;9.90;;;;;;;18.33;100.00;100156.91;2951788;80;20980;-63
2021/08/31 15:50:41;;;;;;;9.68;8.70;;;;;;;18.38;100.00;100163.09;2951899;80;20928;-64
2021/08/31 15:55:03;;;;;;;14.10;9.85;;;;;;;18.38;100.00;100156.38;2951797;79;20952;-64
2021/08/31 15:59:05;;;;;;;11.88;10.50;;;;;;;18.36;100.00;100157.88;2950982;80;20992;-64
2021/08/31 16:03:10;;;;;;;11.65;9.33;;;;;;;18.34;100.00;100155.03;2957201;79;20982;-67
2021/08/31 16:07:11;;;;;;;12.47;9.15;;;;;;;18.32;100.00;100153.88;2951756;80;20956;-66
2021/08/31 16:11:19;;;;;;;20.12;9.78;;;;;;;18.33;100.00;100155.55;2952363;79;20959;-65
2021/08/31 16:15:21;;;;;;;17.85;12.18;;;;;;;18.39;100.00;100158.86;2952220;80;20991;-68
2021/08/31 16:19:27;;;;;;;14.13;10.28;;;;;;;18.47;100.00;100160.66;2951497;80;21026;-64
2021/08/31 16:23:30;;;;;;;12.13;9.35;;;;;;;18.53;100.00;100161.80;2949633;80;21010;-64
2021/08/31 16:27:33;;;;;;;13.40;9.70;;;;;;;18.54;100.00;100162.13;2930337;81;20999;-64
2021/08/31 16:31:40;;;;;;;15.00;10.20;;;;;;;18.59;100.00;100162.93;2925444;80;20972;-64
2021/08/31 16:35:42;;;;;;;13.85;9.68;;;;;;;18.61;100.00;100160.89;2887521;82;21054;-69
2021/08/31 16:39:48;;;;;;;12.70;10.63;;;;;;;18.64;100.00;100158.65;2887373;82;21050;-67
2021/08/31 16:43:50;;;;;;;12.50;8.40;;;;;;;18.69;100.00;100176.47;2887912;82;21015;-67
2021/08/31 16:47:52;;;;;;;17.95;9.15;;;;;;;18.72;100.00;100177.13;2889560;81;20995;-64
2021/08/31 16:51:54;;;;;;;18.62;10.70;;;;;;;18.76;100.00;100176.56;2898232;82;20946;-65
2021/08/31 16:55:56;;;;;;;15.03;10.30;;;;;;;18.75;100.00;100176.76;2898247;81;20974;-65
2021/08/31 16:59:59;;;;;;;11.10;9.33;;;;;;;18.75;100.00;100181.62;2898034;81;20966;-65
2021/08/31 17:04:03;;;;;;;14.68;8.20;;;;;;;18.65;100.00;100172.45;2898070;82;20981;-65
2021/08/31 17:08:08;;;;;;;13.68;8.20;;;;;;;18.56;100.00;100166.81;2945354;79;20994;-66
2021/08/31 17:12:10;;;;;;;10.60;8.00;;;;;;;18.56;100.00;100178.94;2949189;80;20959;-65
2021/08/31 17:16:12;;;;;;;16.82;8.98;;;;;;;18.58;100.00;100203.01;2948652;81;20986;-67
2021/08/31 17:20:14;;;;;;;8.50;7.58;;;;;;;18.58;100.00;100201.14;2948602;80;20980;-67
2021/08/31 17:24:17;;;;;;;7.65;6.87;;;;;;;18.58;100.00;100205.17;2948740;80;20998;-67
2021/08/31 17:28:19;;;;;;;8.50;5.45;;;;;;;18.57;98.84;100219.66;2949492;80;20943;-65
2021/08/31 17:32:21;;;;;;;8.05;4.60;;;;;;;18.51;96.25;100221.22;2951822;80;20983;-65
2021/08/31 17:36:24;;;;;;;10.40;5.58;;;;;;;18.45;93.03;100225.98;2952265;80;20963;-65
2021/08/31 17:40:26;;;;;;;6.33;5.20;;;;;;;18.39;91.30;100245.03;2959591;80;21436;-64
2021/08/31 17:44:55;;;;;;;7.35;5.20;;;;;;;18.34;90.95;100251.96;2942337;80;21162;-64
2021/08/31 17:49:07;;;;;;;13.43;5.00;;;;;;;18.24;89.73;100257.57;2787136;85;21063;-69
2021/08/31 17:53:11;;;;;;;5.65;5.00;;;;;;;18.13;89.07;100264.20;2846382;83;20992;-69
2021/08/31 17:57:13;;;;;;;10.50;5.72;;;;;;;18.04;88.70;100270.64;2846517;81;21563;-69
2021/08/31 18:01:15;;;;;;;8.03;4.70;;;;;;;17.97;88.60;100280.71;2846329;82;21007;-70
2021/08/31 18:05:17;;;;;;;13.00;7.10;;;;;;;17.90;89.14;100291.85;2860723;81;20984;-71
2021/08/31 18:09:20;;;;;;;7.37;5.22;;;;;;;17.85;89.32;100292.89;2860679;81;21062;-71
2021/08/31 18:13:22;;;;;;;6.92;5.80;;;;;;;17.79;89.31;100296.28;2838047;81;20983;-71
2021/08/31 18:17:24;;;;;;;6.30;4.97;;;;;;;17.74;89.43;100306.70;2838281;84;21031;-71
2021/08/31 18:21:25;;;;;;;9.58;5.78;;;;;;;17.71;90.02;100311.94;2839601;83;21594;-71
2021/08/31 18:25:27;;;;;;;8.25;5.05;;;;;;;17.68;90.83;100317.14;2845667;82;20979;-71
2021/08/31 18:29:30;;;;;;;7.67;5.20;;;;;;;17.62;91.44;100331.28;2843292;82;21586;-72
2021/08/31 18:33:33;;;;;;;11.95;5.60;;;;;;;17.56;92.04;100336.84;2788895;83;21389;-71
2021/08/31 18:37:36;;;;;;;8.60;5.78;;;;;;;17.52;92.82;100346.27;2784595;84;21101;-71
2021/08/31 18:41:40;;;;;;;13.60;6.30;;;;;;;17.47;93.14;100332.47;2844818;83;21023;-72
2021/08/31 18:45:43;;;;;;;6.65;5.10;;;;;;;17.44;93.33;100354.32;2788304;84;21437;-72
2021/08/31 18:49:46;;;;;;;6.70;5.72;;;;;;;17.39;93.64;100349.96;2819315;83;20997;-72
2021/08/31 18:53:50;;;;;;;7.00;5.45;;;;;;;17.37;93.94;100354.15;2833574;82;20957;-71